Terminal Aerodrome Forecast
Issued by NWS Paducah, KY

Home | Current Version | Previous Version | Text Only | Print | Product List | Glossary On
Versions: 1 2 3 4 5 6 7 8 9 10 11 12 13 14 15 16 17 18 19 20 21 22 23 24
187
FTUS43 KPAH 232320
TAFEVV
TAF
KEVV 232320Z 2400/2424 31008G16KT P6SM OVC015
     FM240300 32007KT P6SM OVC020
     FM240600 29003KT P6SM OVC025
     FM241300 VRB04KT P6SM SCT030=

USA.gov is the U.S. government's official web portal to all federal, state and local government web resources and services.